createdAt,value
2023-01-08T00:04:02.397Z,99514.28
2023-01-08T00:08:05.278Z,99509.78
2023-01-08T00:12:07.258Z,99496.03
2023-01-08T00:16:15.048Z,99501.41
2023-01-08T00:20:16.897Z,99500.06
2023-01-08T00:24:18.788Z,99484.19
2023-01-08T00:28:21.153Z,99489.38
2023-01-08T00:32:22.856Z,99488.22
2023-01-08T00:36:24.594Z,99482.19
2023-01-08T00:40:26.369Z,99476.19
2023-01-08T00:44:28.136Z,99465.09
2023-01-08T00:48:31.103Z,99477.56
2023-01-08T00:52:32.922Z,99457.91
2023-01-08T00:56:34.751Z,99450.13
2023-01-08T01:00:36.573Z,99448.34
2023-01-08T01:04:38.440Z,99440.53
2023-01-08T01:08:40.902Z,99443.78
2023-01-08T01:12:43.032Z,99417.06
2023-01-08T01:16:44.869Z,99418.50
2023-01-08T01:20:46.672Z,99415.06
2023-01-08T01:24:48.494Z,99415.47
2023-01-08T01:28:51.626Z,99423.25
2023-01-08T01:32:53.301Z,99441.53
2023-01-08T01:36:55.133Z,99441.28
2023-01-08T01:40:56.920Z,99457.00
2023-01-08T01:44:58.725Z,99445.75
2023-01-08T01:49:02.770Z,99432.78
2023-01-08T01:53:13.349Z,99419.00
2023-01-08T01:57:15.055Z,99425.22
2023-01-08T02:01:16.863Z,99418.59
2023-01-08T02:05:18.748Z,99428.16
2023-01-08T02:09:52.142Z,99411.06
2023-01-08T02:14:26.229Z,99399.06
2023-01-08T02:18:59.433Z,99409.91
2023-01-08T02:23:15.215Z,99391.34
2023-01-08T02:27:16.981Z,99392.16
2023-01-08T02:31:18.943Z,99385.09
2023-01-08T02:35:20.727Z,99397.09
2023-01-08T02:39:59.272Z,99378.91
2023-01-08T02:44:01.023Z,99391.47
2023-01-08T02:48:37.133Z,99385.03
2023-01-08T02:53:11.593Z,99396.84
2023-01-08T02:57:15.077Z,99384.56
2023-01-08T03:01:20.000Z,99397.22
2023-01-08T03:05:25.161Z,99384.53
2023-01-08T03:09:26.975Z,99382.41
2023-01-08T03:13:38.699Z,99389.44
2023-01-08T03:17:47.061Z,99381.75
2023-01-08T03:21:49.209Z,99370.56
2023-01-08T03:25:50.963Z,99370.00
2023-01-08T03:29:53.934Z,99373.56
2023-01-08T03:33:55.772Z,99366.50
2023-01-08T03:38:08.670Z,99368.03
2023-01-08T03:42:12.219Z,99355.22
2023-01-08T03:46:28.167Z,99350.25
2023-01-08T03:50:30.390Z,99342.34
2023-01-08T03:54:34.734Z,99332.34
2023-01-08T03:58:36.540Z,99328.72
2023-01-08T04:02:38.401Z,99321.25
2023-01-08T04:06:40.327Z,99319.25
2023-01-08T04:10:42.135Z,99303.38
2023-01-08T04:14:43.880Z,99309.72
2023-01-08T04:18:45.555Z,99293.91
2023-01-08T04:22:47.259Z,99298.72
2023-01-08T04:26:48.984Z,99311.47
2023-01-08T04:30:51.338Z,99306.81
2023-01-08T04:34:53.099Z,99310.03
2023-01-08T04:38:54.797Z,99313.38
2023-01-08T04:42:56.498Z,99313.75
2023-01-08T04:46:58.251Z,99322.84
2023-01-08T04:51:00.591Z,99315.44
2023-01-08T04:55:02.559Z,99309.50
2023-01-08T04:59:04.291Z,99293.69
2023-01-08T05:03:06.148Z,99302.03
2023-01-08T05:07:08.011Z,99306.28
2023-01-08T05:11:10.207Z,99295.91
2023-01-08T05:15:12.034Z,99289.38
2023-01-08T05:19:14.037Z,99280.28
2023-01-08T05:23:15.753Z,99280.84
2023-01-08T05:27:17.472Z,99295.78
2023-01-08T05:31:19.236Z,99298.22
2023-01-08T05:35:20.971Z,99285.09
2023-01-08T05:39:22.742Z,99288.81
2023-01-08T05:43:24.491Z,99272.50
2023-01-08T05:47:30.862Z,99271.59
2023-01-08T05:51:32.535Z,99264.88
2023-01-08T05:55:34.323Z,99250.53
2023-01-08T05:59:36.034Z,99254.34
2023-01-08T06:03:38.094Z,99264.19
2023-01-08T06:07:39.920Z,99255.88
2023-01-08T06:11:41.732Z,99238.94
2023-01-08T06:15:46.588Z,99246.16
2023-01-08T06:19:48.442Z,99254.50
2023-01-08T06:23:50.327Z,99245.31
2023-01-08T06:27:52.772Z,99255.50
2023-01-08T06:31:54.684Z,99256.69
2023-01-08T06:36:02.238Z,99262.56
2023-01-08T06:40:04.605Z,99255.41
2023-01-08T06:44:06.387Z,99254.28
2023-01-08T06:48:08.255Z,99276.41
2023-01-08T06:52:10.800Z,99282.13
2023-01-08T06:56:13.542Z,99269.50
2023-01-08T07:00:15.705Z,99278.09
2023-01-08T07:04:18.477Z,99278.84
2023-01-08T07:08:20.300Z,99279.22
2023-01-08T07:12:24.833Z,99280.19
2023-01-08T07:16:26.864Z,99282.53
2023-01-08T07:20:28.659Z,99290.47
2023-01-08T07:24:30.490Z,99286.34
2023-01-08T07:28:35.484Z,99294.78
2023-01-08T07:32:40.257Z,99289.50
2023-01-08T07:36:41.994Z,99286.38
2023-01-08T07:40:43.753Z,99275.75
2023-01-08T07:44:45.469Z,99274.59
2023-01-08T07:48:47.207Z,99270.66
2023-01-08T07:52:48.992Z,99260.41
2023-01-08T07:56:53.422Z,99259.06
2023-01-08T08:00:57.250Z,99270.00
2023-01-08T08:05:00.829Z,99251.81
2023-01-08T08:09:03.806Z,99262.91
2023-01-08T08:13:05.864Z,99258.53
2023-01-08T08:17:15.777Z,99243.50
2023-01-08T08:21:17.641Z,99227.81
2023-01-08T08:25:21.908Z,99233.66
2023-01-08T08:29:25.383Z,99248.69
2023-01-08T08:33:29.748Z,99236.66
2023-01-08T08:37:38.972Z,99226.97
2023-01-08T08:41:55.944Z,99218.34
2023-01-08T08:46:06.738Z,99207.31
2023-01-08T08:50:12.492Z,99198.00
2023-01-08T08:54:19.140Z,99203.91
2023-01-08T08:58:23.960Z,99194.66
2023-01-08T09:02:26.058Z,99205.34
2023-01-08T09:06:33.435Z,99197.03
2023-01-08T09:10:41.865Z,99194.34
2023-01-08T09:14:43.780Z,99190.59
2023-01-08T09:19:24.787Z,99180.50
2023-01-08T09:23:26.627Z,99182.50
2023-01-08T09:27:28.644Z,99158.06
2023-01-08T09:31:33.183Z,99165.75
2023-01-08T09:35:35.144Z,99166.63
2023-01-08T09:48:23.005Z,99163.31
2023-01-08T10:02:48.147Z,99155.94
2023-01-08T10:12:25.247Z,99151.69
2023-01-08T10:16:39.620Z,99161.03
2023-01-08T10:20:54.809Z,99157.34
2023-01-08T10:25:26.208Z,99148.78
2023-01-08T10:29:33.946Z,99138.22
2023-01-08T10:33:47.892Z,99131.34
2023-01-08T10:38:14.340Z,99139.09
2023-01-08T10:42:26.695Z,99117.16
2023-01-08T10:46:32.309Z,99107.53
2023-01-08T10:50:50.463Z,99099.31
2023-01-08T10:54:57.719Z,99099.34
2023-01-08T10:59:00.879Z,99088.25
2023-01-08T11:03:36.011Z,99083.13
2023-01-08T11:07:40.272Z,99075.22
2023-01-08T11:11:42.208Z,99066.94
2023-01-08T11:15:44.177Z,99075.38
2023-01-08T11:20:09.855Z,99072.25
2023-01-08T11:24:57.536Z,99091.66
2023-01-08T11:29:18.518Z,99081.19
2023-01-08T11:33:26.779Z,99079.00
2023-01-08T11:38:07.023Z,99076.34
2023-01-08T11:42:48.804Z,99067.34
2023-01-08T11:47:18.170Z,99059.06
2023-01-08T11:52:33.983Z,99048.56
2023-01-08T11:57:10.697Z,99045.94
2023-01-08T12:03:03.502Z,99039.88
2023-01-08T12:07:25.229Z,99022.66
2023-01-08T12:12:01.076Z,99033.97
2023-01-08T12:16:32.040Z,99009.34
2023-01-08T12:20:52.196Z,99009.16
2023-01-08T12:25:46.924Z,99002.19
2023-01-08T12:30:18.839Z,99003.19
2023-01-08T12:35:20.205Z,99006.63
2023-01-08T12:39:42.083Z,99006.00
2023-01-08T12:44:15.872Z,99010.41
2023-01-08T12:48:29.506Z,99003.56
2023-01-08T12:53:04.658Z,99002.06
2023-01-08T12:57:31.895Z,98992.28
2023-01-08T13:02:15.744Z,98988.41
2023-01-08T13:06:19.515Z,98975.00
2023-01-08T13:10:54.793Z,98984.97
2023-01-08T13:14:59.652Z,98975.66
2023-01-08T13:19:05.867Z,98975.66
2023-01-08T13:23:09.185Z,98970.47
2023-01-08T13:27:12.296Z,98973.53
2023-01-08T13:31:20.317Z,98954.13
2023-01-08T13:35:31.501Z,98961.75
2023-01-08T13:39:39.911Z,98959.84
2023-01-08T13:43:42.092Z,98954.97
2023-01-08T13:47:44.288Z,98954.72
2023-01-08T13:51:47.667Z,98952.84
2023-01-08T13:56:00.385Z,98949.72
2023-01-08T14:00:02.592Z,98934.66
2023-01-08T14:04:04.643Z,98938.88
2023-01-08T14:08:21.532Z,98934.81
2023-01-08T14:12:24.230Z,98935.56
2023-01-08T14:16:26.204Z,98956.16
2023-01-08T14:20:34.241Z,98948.66
2023-01-08T14:24:36.454Z,98946.97
2023-01-08T14:28:38.501Z,98949.84
2023-01-08T14:33:00.494Z,98959.22
2023-01-08T14:37:02.608Z,98970.47
2023-01-08T14:41:09.542Z,98955.78
2023-01-08T14:45:32.049Z,98950.16
2023-01-08T14:49:35.181Z,98959.44
2023-01-08T14:53:49.275Z,98957.00
2023-01-08T14:57:53.545Z,98937.16
2023-01-08T15:01:59.636Z,98945.19
2023-01-08T15:06:01.651Z,98951.66
2023-01-08T15:10:31.533Z,98959.53
2023-01-08T15:14:42.360Z,98958.19
2023-01-08T15:18:50.900Z,98961.91
2023-01-08T15:23:18.240Z,98954.31
2023-01-08T15:27:25.244Z,98966.91
2023-01-08T15:31:41.330Z,98963.59
2023-01-08T15:35:46.248Z,98969.84
2023-01-08T15:39:52.663Z,98973.06
2023-01-08T15:44:05.184Z,98986.56
2023-01-08T15:48:07.573Z,98974.41
2023-01-08T15:52:09.402Z,98981.88
2023-01-08T15:56:11.253Z,98969.63
2023-01-08T16:00:14.975Z,98966.63
2023-01-08T16:04:22.847Z,98972.56
2023-01-08T16:08:24.734Z,98980.06
2023-01-08T16:12:26.651Z,98968.50
2023-01-08T16:16:28.669Z,98957.22
2023-01-08T16:20:30.519Z,98953.41
2023-01-08T16:24:33.112Z,98940.34
2023-01-08T16:28:36.429Z,98951.03
2023-01-08T16:32:38.369Z,98961.72
2023-01-08T16:36:40.251Z,98946.38
2023-01-08T16:40:42.239Z,98964.63
2023-01-08T16:44:44.210Z,98951.72
2023-01-08T16:48:50.022Z,98940.94
2023-01-08T16:52:51.980Z,98960.63
2023-01-08T16:56:54.983Z,98931.59
2023-01-08T17:00:57.969Z,98940.81
2023-01-08T17:05:00.065Z,98939.00
2023-01-08T17:09:01.957Z,98948.31
2023-01-08T17:13:03.826Z,98947.91
2023-01-08T17:17:05.727Z,98957.09
2023-01-08T17:21:08.083Z,98955.00
2023-01-08T17:25:10.056Z,98935.19
2023-01-08T17:29:11.851Z,98914.66
2023-01-08T17:33:14.769Z,98931.09
2023-01-08T17:37:16.957Z,98926.47
2023-01-08T17:41:37.541Z,98904.44
2023-01-08T17:45:39.426Z,98894.59
2023-01-08T17:49:41.639Z,98891.75
2023-01-08T17:53:53.036Z,98879.16
2023-01-08T17:58:02.427Z,98864.41
2023-01-08T18:02:04.792Z,98866.09
2023-01-08T18:06:19.159Z,98865.34
2023-01-08T18:10:21.517Z,98859.69
2023-01-08T18:14:26.041Z,98862.03
2023-01-08T18:18:31.313Z,98865.75
2023-01-08T18:22:50.288Z,98846.88
2023-01-08T18:26:55.981Z,98846.63
2023-01-08T18:31:00.138Z,98847.78
2023-01-08T18:35:05.580Z,98853.94
2023-01-08T18:39:07.646Z,98849.47
2023-01-08T18:43:10.299Z,98858.72
2023-01-08T18:47:17.055Z,98860.53
2023-01-08T18:51:22.214Z,98855.13
2023-01-08T18:55:41.713Z,98854.72
2023-01-08T18:59:53.055Z,98840.63
2023-01-08T19:04:01.100Z,98820.69
2023-01-08T19:08:08.643Z,98823.69
2023-01-08T19:12:10.596Z,98840.59
2023-01-08T19:16:18.793Z,98834.94
2023-01-08T19:20:26.004Z,98826.72
2023-01-08T19:24:31.963Z,98836.03
2023-01-08T19:28:44.724Z,98832.47
2023-01-08T19:32:49.037Z,98841.28
2023-01-08T19:36:53.943Z,98823.44
2023-01-08T19:41:04.709Z,98817.59
2023-01-08T19:45:21.373Z,98834.75
2023-01-08T19:49:23.950Z,98835.38
2023-01-08T19:53:28.359Z,98823.16
2023-01-08T19:57:35.016Z,98805.09
2023-01-08T20:01:42.927Z,98809.38
2023-01-08T20:05:47.837Z,98791.72
2023-01-08T20:10:04.178Z,98781.91
2023-01-08T20:14:08.010Z,98783.00
2023-01-08T20:18:09.977Z,98776.63
2023-01-08T20:22:11.812Z,98770.84
2023-01-08T20:26:20.344Z,98769.28
2023-01-08T20:30:22.360Z,98755.25
2023-01-08T20:34:26.718Z,98742.03
2023-01-08T20:38:28.492Z,98748.47
2023-01-08T20:42:34.049Z,98733.72
2023-01-08T20:46:36.855Z,98727.97
2023-01-08T20:50:39.759Z,98720.81
2023-01-08T20:54:41.575Z,98730.91
2023-01-08T20:58:45.445Z,98739.78
2023-01-08T21:02:47.342Z,98727.72
2023-01-08T21:06:49.107Z,98735.44
2023-01-08T21:11:01.661Z,98739.75
2023-01-08T21:15:04.083Z,98723.34
2023-01-08T21:19:06.043Z,98723.41
2023-01-08T21:23:07.803Z,98726.09
2023-01-08T21:27:09.515Z,98733.34
2023-01-08T21:31:19.196Z,98715.88
2023-01-08T21:35:21.107Z,98690.09
2023-01-08T21:39:23.002Z,98679.16
2023-01-08T21:43:43.266Z,98675.69
2023-01-08T21:47:45.081Z,98659.84
2023-01-08T21:52:05.184Z,98639.16
2023-01-08T21:56:07.169Z,98644.75
2023-01-08T22:00:10.443Z,98652.94
2023-01-08T22:04:12.643Z,98640.88
2023-01-08T22:08:18.463Z,98641.38
2023-01-08T22:12:20.657Z,98646.56
2023-01-08T22:16:22.464Z,98640.03
2023-01-08T22:20:24.240Z,98640.56
2023-01-08T22:24:26.056Z,98631.63
2023-01-08T22:28:27.780Z,98624.03
2023-01-08T22:32:29.556Z,98620.78
2023-01-08T22:36:31.247Z,98621.91
2023-01-08T22:40:33.254Z,98607.22
2023-01-08T22:44:35.429Z,98596.44
2023-01-08T22:48:38.265Z,98595.38
2023-01-08T22:52:40.085Z,98581.81
2023-01-08T22:56:41.914Z,98585.03
2023-01-08T23:00:44.022Z,98584.28
2023-01-08T23:04:45.786Z,98586.28
2023-01-08T23:08:47.755Z,98583.06
2023-01-08T23:12:50.788Z,98567.91
2023-01-08T23:16:52.560Z,98557.22
2023-01-08T23:21:03.678Z,98550.56
2023-01-08T23:25:06.065Z,98549.75
2023-01-08T23:29:07.892Z,98565.22
2023-01-08T23:33:09.959Z,98552.25
2023-01-08T23:37:11.903Z,98550.94
2023-01-08T23:41:13.609Z,98557.75
2023-01-08T23:45:15.501Z,98541.59
2023-01-08T23:49:17.315Z,98528.38
2023-01-08T23:53:19.013Z,98517.28
2023-01-08T23:57:20.716Z,98520.25
